Time;durP1;ratioP1;P1;durP2;ratioP2;P2;SDS_P1;SDS_P2;PMS_P1;PMS_P2;Temp;Humidity;BMP_temperature;BMP_pressure;BME280_temperature;BME280_humidity;BME280_pressure;Samples;Min_cycle;Max_cycle;Signal;HPM_P1;HPM_P2
2021/12/16 00:09:10;;;;;;;49.63;34.00;;;;;;;3.48;82.51;101637.34;4972944;28;20184;-72
2021/12/16 00:30:09;;;;;;;48.15;31.65;;;;;;;3.37;84.11;101665.38;5062410;28;20554;-69
2021/12/16 00:32:20;;;;;;;53.50;34.35;;;;;;;3.46;83.99;101649.34;5061440;28;20060;-71
2021/12/16 00:34:48;;;;;;;55.58;34.60;;;;;;;3.33;84.31;101631.44;5056624;28;20049;-70
2021/12/16 00:37:14;;;;;;;52.85;33.55;;;;;;;3.44;83.99;101640.63;5062690;28;20049;-71
2021/12/16 00:39:41;;;;;;;62.67;33.25;;;;;;;3.27;84.58;101644.97;5060858;28;20048;-71
2021/12/16 00:42:13;;;;;;;54.47;33.92;;;;;;;3.75;84.47;101668.06;5060728;28;20048;-71
2021/12/16 00:49:42;;;;;;;64.15;34.10;;;;;;;3.28;85.35;101638.97;5059962;28;20044;-69
2021/12/16 00:55:04;;;;;;;55.85;34.80;;;;;;;3.23;85.84;101648.25;5056345;28;20822;-71
2021/12/16 00:57:30;;;;;;;46.30;32.08;;;;;;;3.25;85.36;101624.94;5057382;28;20542;-71
2021/12/16 00:59:58;;;;;;;49.58;33.38;;;;;;;3.53;84.45;101634.97;5059502;28;20036;-71
2021/12/16 01:02:47;;;;;;;53.03;34.13;;;;;;;3.57;84.70;101655.94;5054301;28;20036;-72
2021/12/16 01:51:19;;;;;;;59.00;34.60;;;;;;;3.07;84.12;101597.31;5044622;28;20152;-70
2021/12/16 01:54:16;;;;;;;61.30;37.50;;;;;;;3.29;84.56;101626.88;5041825;28;20037;-70
2021/12/16 01:59:03;;;;;;;63.10;34.80;;;;;;;3.30;84.30;101608.81;5057143;28;20039;-69
2021/12/16 02:01:33;;;;;;;55.88;35.47;;;;;;;3.35;84.19;101619.41;5042655;28;20048;-71
2021/12/16 02:04:44;;;;;;;48.63;34.83;;;;;;;3.31;83.68;101605.41;5039679;28;20043;-70
2021/12/16 02:07:09;;;;;;;54.90;35.97;;;;;;;3.23;84.22;101622.31;5037148;28;20595;-70
2021/12/16 02:09:40;;;;;;;58.03;31.88;;;;;;;3.45;84.11;101625.94;5046053;28;20048;-71
2021/12/16 02:31:48;;;;;;;53.63;34.75;;;;;;;3.16;83.77;101581.28;4998578;28;20047;-69
2021/12/16 02:36:47;;;;;;;57.83;34.75;;;;;;;3.46;83.73;101605.25;5038621;28;20040;-70
2021/12/16 02:39:16;;;;;;;52.95;32.70;;;;;;;3.18;83.23;101590.03;5059447;28;20144;-70
2021/12/16 02:41:44;;;;;;;54.72;33.53;;;;;;;3.12;83.12;101587.16;5061025;28;20048;-70
2021/12/16 02:44:24;;;;;;;51.55;34.28;;;;;;;3.01;83.82;101599.59;5061214;28;20025;-69
2021/12/16 02:49:39;;;;;;;46.88;33.33;;;;;;;3.00;84.73;101597.81;5058793;28;20114;-70
2021/12/16 02:52:07;;;;;;;56.55;35.33;;;;;;;3.10;84.54;101589.69;5058405;28;20520;-69
2021/12/16 02:54:33;;;;;;;65.88;35.58;;;;;;;3.20;83.96;101585.81;5058719;28;20523;-70
2021/12/16 02:56:58;;;;;;;65.75;37.78;;;;;;;3.16;84.09;101586.47;5057882;28;20052;-69
2021/12/16 02:59:29;;;;;;;83.88;39.83;;;;;;;3.11;84.33;101577.59;5057065;28;20459;-70
2021/12/16 03:02:04;;;;;;;58.22;36.08;;;;;;;2.98;84.99;101590.78;5058978;28;20039;-70
2021/12/16 03:04:30;;;;;;;60.15;33.95;;;;;;;2.90;84.93;101600.75;5058305;28;20052;-70
2021/12/16 03:06:58;;;;;;;48.38;31.15;;;;;;;2.62;85.26;101606.25;5063234;28;20078;-70
2021/12/16 03:14:59;;;;;;;72.68;30.88;;;;;;;2.31;87.63;101599.47;5061511;28;20059;-70
2021/12/16 03:25:59;;;;;;;59.50;34.60;;;;;;;2.42;87.64;101587.97;5057738;28;20530;-69
2021/12/16 03:38:39;;;;;;;51.08;29.83;;;;;;;2.81;84.91;101610.66;5062035;28;20602;-70
2021/12/16 03:41:06;;;;;;;47.38;28.00;;;;;;;2.84;84.72;101603.06;5060262;28;20136;-70
2021/12/16 03:43:34;;;;;;;58.67;30.45;;;;;;;2.61;85.07;101599.28;5062882;28;20560;-70
2021/12/16 03:48:47;;;;;;;49.20;32.72;;;;;;;2.85;84.36;101590.16;5061128;28;20037;-69
2021/12/16 03:51:27;;;;;;;45.53;32.30;;;;;;;2.85;84.57;101599.63;5062130;28;20052;-70
2021/12/16 03:54:04;;;;;;;51.35;30.92;;;;;;;2.35;86.13;101609.19;5063141;28;20055;-69
2021/12/16 03:56:30;;;;;;;50.42;32.45;;;;;;;2.57;86.21;101605.13;5066652;28;20086;-69
2021/12/16 03:58:56;;;;;;;56.47;29.67;;;;;;;3.24;84.64;101633.56;5066266;28;20052;-69
2021/12/16 04:01:25;;;;;;;50.22;31.13;;;;;;;3.17;84.05;101632.38;5061091;28;20121;-70
2021/12/16 04:03:51;;;;;;;51.42;31.13;;;;;;;3.12;84.15;101624.34;5059253;28;20042;-69
2021/12/16 04:06:19;;;;;;;57.60;32.55;;;;;;;2.67;84.62;101595.31;5058604;28;20040;-70
2021/12/16 04:08:45;;;;;;;58.42;31.88;;;;;;;2.83;84.24;101598.66;5039637;28;20048;-70
2021/12/16 04:11:21;;;;;;;60.15;37.30;;;;;;;3.02;84.32;101605.66;5062131;28;20059;-70
2021/12/16 04:13:57;;;;;;;61.83;35.88;;;;;;;2.78;85.03;101590.66;5060654;28;21187;-70
2021/12/16 04:16:36;;;;;;;53.33;36.88;;;;;;;2.94;84.62;101595.78;5056112;28;21205;-70
2021/12/16 04:19:09;;;;;;;60.08;34.30;;;;;;;3.06;84.19;101592.03;5063887;28;20090;-70
2021/12/16 04:21:38;;;;;;;47.55;31.00;;;;;;;3.12;83.88;101594.94;5064450;28;20484;-69
2021/12/16 04:24:04;;;;;;;64.40;34.85;;;;;;;3.10;83.75;101584.50;5060656;28;20055;-69
2021/12/16 04:26:31;;;;;;;50.17;32.15;;;;;;;3.12;84.10;101601.00;5058124;28;20035;-69
2021/12/16 04:28:57;;;;;;;58.53;33.42;;;;;;;2.95;83.97;101594.13;5045169;28;20036;-70
2021/12/16 04:31:24;;;;;;;47.58;32.40;;;;;;;2.84;84.58;101587.50;5060950;28;20051;-70
2021/12/16 04:33:50;;;;;;;57.67;36.50;;;;;;;3.25;84.16;101612.88;5061832;28;20052;-70
2021/12/16 04:36:17;;;;;;;59.55;33.78;;;;;;;3.29;83.73;101609.63;5054875;28;20503;-70
2021/12/16 04:38:45;;;;;;;47.78;33.72;;;;;;;3.04;83.63;101591.06;5057142;28;20059;-70
2021/12/16 04:41:12;;;;;;;54.05;34.35;;;;;;;3.20;83.44;101593.59;5058364;28;20032;-70
2021/12/16 04:43:52;;;;;;;50.78;32.28;;;;;;;3.18;83.69;101608.19;5059182;28;20028;-70
2021/12/16 04:46:22;;;;;;;51.28;34.65;;;;;;;3.16;83.51;101583.88;5062990;28;20059;-70
2021/12/16 04:48:51;;;;;;;43.83;30.42;;;;;;;3.26;82.48;101595.63;5059762;28;20109;-69
2021/12/16 04:51:19;;;;;;;52.72;31.98;;;;;;;3.02;83.04;101582.31;5063035;28;20059;-70
2021/12/16 04:53:45;;;;;;;55.30;30.98;;;;;;;3.08;83.35;101596.47;5060053;28;20921;-70
2021/12/16 04:56:12;;;;;;;56.38;32.72;;;;;;;3.15;82.80;101605.47;5057073;28;20054;-70
2021/12/16 04:58:40;;;;;;;59.97;33.17;;;;;;;3.03;82.90;101610.06;5059780;28;20123;-70
2021/12/16 05:01:06;;;;;;;59.03;34.20;;;;;;;3.05;82.85;101593.75;5060513;28;20048;-71
2021/12/16 05:03:32;;;;;;;61.70;34.25;;;;;;;3.07;82.69;101591.25;5058189;28;20072;-69
2021/12/16 05:05:58;;;;;;;57.55;37.10;;;;;;;3.16;82.63;101602.03;5063661;28;20037;-71
2021/12/16 05:08:24;;;;;;;63.03;36.35;;;;;;;3.07;82.56;101588.66;5068475;28;20046;-71
2021/12/16 05:10:53;;;;;;;62.97;38.65;;;;;;;2.95;83.17;101604.50;5061664;28;20056;-70
2021/12/16 05:13:23;;;;;;;76.47;38.83;;;;;;;3.05;83.27;101598.94;5059521;28;20131;-69
2021/12/16 05:15:50;;;;;;;78.22;43.05;;;;;;;3.29;82.43;101614.81;5062343;28;20158;-71
2021/12/16 05:18:24;;;;;;;68.45;40.35;;;;;;;3.01;83.14;101599.59;5063892;28;20691;-70
2021/12/16 05:20:52;;;;;;;77.45;44.08;;;;;;;2.84;84.10;101590.09;5061028;28;21091;-70
2021/12/16 05:28:32;;;;;;;75.28;45.60;;;;;;;2.97;83.51;101587.28;5060985;28;20051;-70
2021/12/16 05:30:58;;;;;;;81.65;42.92;;;;;;;3.04;83.75;101593.66;5062413;28;20396;-69
2021/12/16 05:33:25;;;;;;;73.85;43.58;;;;;;;3.29;83.03;101590.56;5060198;28;20062;-70
2021/12/16 05:35:51;;;;;;;80.95;42.80;;;;;;;2.93;83.25;101581.06;5058907;28;20046;-70
2021/12/16 05:38:17;;;;;;;58.55;35.72;;;;;;;2.98;83.09;101583.00;5058602;28;20036;-69
2021/12/16 05:40:43;;;;;;;53.83;31.73;;;;;;;2.95;82.71;101575.97;5058433;28;20047;-69
2021/12/16 05:43:12;;;;;;;74.22;34.10;;;;;;;3.09;81.84;101576.63;5057325;28;20075;-69
2021/12/16 05:45:38;;;;;;;51.70;30.98;;;;;;;3.08;81.82;101586.13;5068173;28;20132;-69
2021/12/16 05:48:08;;;;;;;46.25;29.77;;;;;;;3.19;81.79;101575.41;5060005;28;20125;-69
2021/12/16 05:50:36;;;;;;;39.88;27.63;;;;;;;3.11;81.24;101580.19;5063641;28;20107;-69
2021/12/16 05:53:03;;;;;;;45.97;28.95;;;;;;;3.09;81.32;101574.94;5066104;28;20054;-69
2021/12/16 05:55:29;;;;;;;34.13;25.02;;;;;;;3.03;81.68;101581.53;5061604;28;20055;-69
2021/12/16 05:57:56;;;;;;;52.17;28.45;;;;;;;2.95;81.81;101574.25;5063064;28;20069;-69
2021/12/16 06:00:29;;;;;;;47.10;28.13;;;;;;;3.00;81.77;101581.34;5059310;28;20052;-69
2021/12/16 06:02:55;;;;;;;60.27;28.53;;;;;;;3.06;81.82;101592.94;5060182;28;20083;-69
2021/12/16 06:05:20;;;;;;;43.92;28.98;;;;;;;3.09;81.54;101593.09;5062887;28;21010;-68
2021/12/16 06:07:46;;;;;;;50.45;29.10;;;;;;;3.38;81.07;101617.84;5068821;28;20044;-69
2021/12/16 06:12:58;;;;;;;51.33;28.48;;;;;;;3.35;80.77;101596.97;5065219;28;20702;-69
2021/12/16 06:27:01;;;;;;;48.80;28.58;;;;;;;2.90;81.38;101609.44;5057205;28;20035;-71
2021/12/16 06:29:27;;;;;;;42.50;29.30;;;;;;;2.49;82.74;101605.63;5066721;28;20080;-70
2021/12/16 06:31:53;;;;;;;44.83;27.10;;;;;;;2.64;82.50;101600.31;5061019;28;20035;-71
2021/12/16 06:34:18;;;;;;;54.25;28.77;;;;;;;3.07;81.99;101623.25;5041149;28;20048;-70
2021/12/16 06:36:44;;;;;;;45.03;30.13;;;;;;;2.86;82.08;101617.88;5061042;28;20097;-71
2021/12/16 06:39:10;;;;;;;58.03;30.45;;;;;;;3.15;81.78;101624.50;5062181;28;20044;-70
2021/12/16 06:41:38;;;;;;;51.35;28.98;;;;;;;2.70;82.44;101620.50;5056638;28;20040;-70
2021/12/16 06:44:13;;;;;;;48.75;30.95;;;;;;;3.12;82.10;101645.09;5060178;28;20050;-74
2021/12/16 06:46:40;;;;;;;44.72;31.73;;;;;;;3.20;81.65;101637.69;5059683;28;20127;-74
2021/12/16 06:49:07;;;;;;;42.58;28.45;;;;;;;3.35;81.34;101616.81;5058217;28;20040;-74
2021/12/16 06:51:48;;;;;;;68.88;31.33;;;;;;;3.32;80.89;101609.75;5064035;28;21400;-67
2021/12/16 06:54:22;;;;;;;55.88;30.67;;;;;;;3.54;80.22;101626.38;5059911;28;20123;-69
2021/12/16 06:56:57;;;;;;;52.17;32.50;;;;;;;3.68;80.45;101642.63;5058074;28;20074;-69
2021/12/16 06:59:31;;;;;;;63.67;31.85;;;;;;;3.46;80.86;101648.47;5062796;28;20063;-70
2021/12/16 07:02:09;;;;;;;61.97;33.58;;;;;;;3.58;80.97;101643.84;5057517;28;20040;-70
2021/12/16 07:04:37;;;;;;;54.95;30.67;;;;;;;3.51;80.36;101615.84;5060740;28;20063;-69
2021/12/16 07:07:11;;;;;;;58.42;36.60;;;;;;;3.62;80.35;101638.00;5060026;28;20039;-70
2021/12/16 07:09:37;;;;;;;51.85;32.00;;;;;;;3.68;80.07;101630.53;5058923;28;20036;-69
2021/12/16 07:12:05;;;;;;;45.53;26.05;;;;;;;3.69;79.72;101610.66;5059257;28;20048;-69
2021/12/16 07:14:36;;;;;;;41.53;26.52;;;;;;;4.05;79.06;101615.75;5059577;28;20499;-70
2021/12/16 07:17:20;;;;;;;49.28;29.75;;;;;;;3.72;78.72;101609.09;5039525;28;20036;-69
2021/12/16 07:19:45;;;;;;;;;;;;;;;3.38;79.76;101636.00;5059571;28;20109;-68
2021/12/16 07:22:13;;;;;;;53.78;29.60;;;;;;;3.33;80.23;101608.06;5059750;28;19924;-69
2021/12/16 07:24:39;;;;;;;48.78;31.38;;;;;;;3.62;79.92;101618.97;5063315;28;20132;-69
2021/12/16 07:27:07;;;;;;;60.00;35.40;;;;;;;3.52;79.52;101612.44;5058854;28;20044;-68
2021/12/16 07:29:32;;;;;;;54.85;32.65;;;;;;;3.24;80.40;101616.28;5058517;28;20043;-71
2021/12/16 07:32:01;;;;;;;51.92;32.72;;;;;;;3.59;79.82;101620.59;5061733;28;20040;-70
2021/12/16 07:34:28;;;;;;;63.10;33.50;;;;;;;3.80;79.16;101607.72;5059404;28;20044;-70
2021/12/16 07:36:55;;;;;;;52.28;30.17;;;;;;;3.77;78.86;101620.59;5053943;28;20072;-69
2021/12/16 07:39:29;;;;;;;57.50;34.83;;;;;;;3.77;79.19;101612.78;5057196;28;20044;-70
2021/12/16 07:41:56;;;;;;;57.28;31.73;;;;;;;3.74;79.11;101615.22;5063269;28;20044;-70
2021/12/16 07:44:22;;;;;;;56.60;33.45;;;;;;;3.73;79.23;101616.06;5061315;28;20090;-71
2021/12/16 07:46:55;;;;;;;58.00;37.03;;;;;;;3.66;79.43;101610.50;5060818;28;20037;-72
2021/12/16 07:49:25;;;;;;;57.25;34.00;;;;;;;3.62;79.72;101619.84;5061985;28;20056;-70
2021/12/16 07:51:51;;;;;;;60.10;35.42;;;;;;;4.18;79.09;101637.16;5058746;28;20051;-69
2021/12/16 07:54:19;;;;;;;57.40;33.67;;;;;;;4.07;78.64;101609.81;5055366;28;20036;-69
2021/12/16 07:56:46;;;;;;;59.20;34.13;;;;;;;3.79;79.20;101610.25;5062864;28;20131;-69
2021/12/16 07:59:12;;;;;;;64.00;32.92;;;;;;;3.97;79.21;101633.59;5061956;28;20036;-70
2021/12/16 08:01:40;;;;;;;57.50;33.25;;;;;;;4.08;79.06;101632.38;5059686;28;20074;-69
2021/12/16 08:04:07;;;;;;;61.58;34.00;;;;;;;3.92;79.28;101633.38;5061662;28;20072;-70
2021/12/16 08:06:33;;;;;;;52.90;32.67;;;;;;;4.25;78.69;101630.56;5061879;28;20185;-70
2021/12/16 08:09:08;;;;;;;55.67;33.55;;;;;;;4.04;78.12;101599.28;5060727;28;20167;-72
2021/12/16 08:11:36;;;;;;;50.28;31.98;;;;;;;4.20;78.08;101621.66;5055656;28;20038;-73
2021/12/16 08:14:03;;;;;;;53.15;32.28;;;;;;;4.37;78.35;101628.50;5060019;28;20146;-70
2021/12/16 08:16:29;;;;;;;58.20;35.22;;;;;;;3.99;78.21;101612.06;5056747;28;20111;-71
2021/12/16 08:18:55;;;;;;;56.15;35.13;;;;;;;4.35;77.57;101611.06;5055341;28;20423;-72
2021/12/16 08:21:23;;;;;;;55.28;33.88;;;;;;;4.06;77.49;101612.38;5061117;28;20115;-71
2021/12/16 08:23:50;;;;;;;55.30;29.75;;;;;;;4.35;77.58;101598.06;5056473;28;20775;-70
2021/12/16 08:26:16;;;;;;;51.03;34.65;;;;;;;4.17;77.56;101614.63;5061025;28;20047;-71
2021/12/16 08:28:43;;;;;;;62.15;35.97;;;;;;;4.36;77.26;101628.44;5052494;28;21625;-71
2021/12/16 08:31:10;;;;;;;60.55;36.08;;;;;;;4.39;76.77;101603.47;5058071;28;20044;-71
2021/12/16 08:33:37;;;;;;;56.47;32.97;;;;;;;4.57;76.79;101602.53;5058488;28;20065;-70
2021/12/16 08:36:06;;;;;;;53.00;32.60;;;;;;;4.73;76.13;101641.34;5054117;28;20041;-69
2021/12/16 08:38:33;;;;;;;57.60;33.58;;;;;;;4.15;77.50;101613.66;5058164;28;20151;-71
2021/12/16 08:41:05;;;;;;;62.80;33.88;;;;;;;4.50;77.10;101634.25;5060331;28;20032;-68
2021/12/16 08:43:31;;;;;;;47.90;29.80;;;;;;;4.64;76.63;101622.75;5063726;28;20040;-70
2021/12/16 08:45:58;;;;;;;44.88;30.85;;;;;;;4.77;76.00;101639.75;5061920;28;20048;-70
2021/12/16 08:48:26;;;;;;;53.75;33.45;;;;;;;4.58;75.69;101622.47;5061461;28;20051;-70
2021/12/16 08:50:52;;;;;;;54.65;31.38;;;;;;;4.71;76.02;101624.81;5059636;28;20056;-68
2021/12/16 08:53:20;;;;;;;64.57;38.75;;;;;;;4.99;75.03;101634.66;5063493;28;20028;-69
2021/12/16 08:55:47;;;;;;;52.10;31.38;;;;;;;4.94;74.82;101625.78;5057439;28;20539;-69
2021/12/16 08:58:13;;;;;;;62.75;37.15;;;;;;;4.51;76.21;101612.63;5064805;28;20466;-70
2021/12/16 09:00:43;;;;;;;56.95;34.40;;;;;;;4.69;76.19;101622.97;5061620;28;20120;-69
2021/12/16 09:03:09;;;;;;;57.30;36.72;;;;;;;4.63;75.96;101633.97;5064865;28;20069;-68
2021/12/16 09:05:35;;;;;;;75.88;39.65;;;;;;;4.81;76.25;101645.16;5062685;28;20156;-67
2021/12/16 09:08:01;;;;;;;59.80;35.78;;;;;;;4.86;75.98;101641.03;5062992;28;20153;-70
2021/12/16 09:10:31;;;;;;;56.95;35.05;;;;;;;5.04;75.61;101627.94;5061217;28;20435;-67
2021/12/16 09:13:02;;;;;;;65.95;38.58;;;;;;;4.58;75.57;101625.06;5058526;28;20545;-67
2021/12/16 09:15:41;;;;;;;81.53;43.80;;;;;;;4.74;75.23;101624.03;5058120;28;20044;-67
2021/12/16 09:18:08;;;;;;;77.70;42.17;;;;;;;4.95;74.96;101635.34;5061738;28;20051;-72
2021/12/16 09:20:35;;;;;;;110.80;51.22;;;;;;;4.79;75.12;101626.00;5063090;28;20049;-70
2021/12/16 09:23:01;;;;;;;104.82;49.10;;;;;;;4.82;75.48;101626.16;5061689;28;20108;-68
2021/12/16 09:25:27;;;;;;;70.88;38.45;;;;;;;5.02;75.05;101653.00;5059995;28;20048;-70
2021/12/16 09:27:53;;;;;;;66.60;35.92;;;;;;;4.67;75.06;101614.19;5059315;28;20052;-69
2021/12/16 09:30:23;;;;;;;67.75;35.58;;;;;;;5.05;74.98;101608.91;5058812;28;20051;-68
2021/12/16 09:32:52;;;;;;;72.10;42.50;;;;;;;5.22;75.09;101650.34;5061474;28;20052;-70
2021/12/16 09:35:19;;;;;;;50.97;34.63;;;;;;;5.40;74.41;101637.22;5060992;28;20472;-68
2021/12/16 09:37:45;;;;;;;57.78;35.45;;;;;;;5.13;74.20;101611.84;5057079;28;20075;-69
2021/12/16 09:40:21;;;;;;;63.10;35.72;;;;;;;5.27;74.29;101635.84;5061573;28;20510;-69
2021/12/16 09:42:48;;;;;;;62.10;35.20;;;;;;;5.22;73.80;101598.28;5063245;28;20130;-68
2021/12/16 09:45:14;;;;;;;79.53;37.28;;;;;;;4.95;74.03;101601.53;5060976;28;20044;-69
2021/12/16 09:47:40;;;;;;;65.53;37.72;;;;;;;4.02;77.20;101599.22;5066154;28;20028;-69
2021/12/16 09:50:08;;;;;;;61.33;34.90;;;;;;;4.84;75.33;101595.00;5061801;28;20324;-69
2021/12/16 09:52:34;;;;;;;56.92;34.65;;;;;;;5.24;74.26;101588.84;5059799;28;20048;-69
2021/12/16 09:55:01;;;;;;;60.22;36.75;;;;;;;4.67;75.77;101617.69;5062656;28;20076;-69
2021/12/16 09:57:28;;;;;;;57.13;31.40;;;;;;;4.28;76.18;101588.22;5065143;28;20698;-69
2021/12/16 09:59:55;;;;;;;56.22;33.92;;;;;;;4.13;77.24;101604.03;5059056;28;20044;-69
2021/12/16 10:02:22;;;;;;;65.30;36.30;;;;;;;4.59;76.04;101580.09;5094841;27;20024;-69
2021/12/16 10:04:49;;;;;;;62.95;32.30;;;;;;;5.12;73.90;101593.56;5062520;28;20040;-68
2021/12/16 10:07:25;;;;;;;56.75;34.33;;;;;;;5.38;73.40;101605.91;5060636;28;20068;-68
2021/12/16 10:09:54;;;;;;;56.95;34.38;;;;;;;4.49;74.89;101599.56;5057588;28;20044;-69
2021/12/16 10:12:25;;;;;;;61.50;37.45;;;;;;;4.67;74.50;101576.09;5062264;28;20048;-68
2021/12/16 10:17:28;;;;;;;52.75;30.13;;;;;;;5.64;73.11;101583.53;5061434;28;20042;-68
2021/12/16 10:19:57;;;;;;;68.82;34.45;;;;;;;5.87;71.98;101596.53;5059354;28;20060;-69
2021/12/16 10:22:32;;;;;;;68.88;34.53;;;;;;;5.53;72.67;101586.53;5060215;28;20095;-68
2021/12/16 10:25:22;;;;;;;71.53;36.58;;;;;;;5.70;72.35;101575.94;5062767;28;20037;-68
2021/12/16 10:28:13;;;;;;;62.97;36.17;;;;;;;5.45;73.06;101570.59;5060088;28;20051;-69
2021/12/16 10:31:02;;;;;;;60.22;35.00;;;;;;;5.42;73.17;101594.78;5050022;28;20093;-68
2021/12/16 10:33:44;;;;;;;54.22;31.75;;;;;;;5.46;72.74;101557.66;5058819;28;20040;-69
2021/12/16 10:36:32;;;;;;;52.75;31.77;;;;;;;5.83;71.60;101576.41;5056527;28;20070;-69
2021/12/16 10:39:26;;;;;;;56.75;34.58;;;;;;;5.76;72.00;101572.69;5062752;28;20044;-68
2021/12/16 10:41:57;;;;;;;65.95;36.20;;;;;;;5.63;71.60;101560.03;5057536;28;20036;-69
2021/12/16 10:44:27;;;;;;;62.25;36.20;;;;;;;5.83;72.34;101582.53;5097389;27;20063;-69
2021/12/16 10:47:00;;;;;;;61.67;34.22;;;;;;;5.75;71.85;101557.00;5072316;28;20060;-69
2021/12/16 10:49:30;;;;;;;64.93;37.33;;;;;;;5.71;72.05;101553.38;5056210;28;20070;-69
2021/12/16 10:52:00;;;;;;;61.70;33.88;;;;;;;5.53;72.47;101530.16;5061579;28;20549;-70
2021/12/16 10:54:25;;;;;;;55.67;35.47;;;;;;;5.60;72.70;101550.38;5062173;28;20041;-69
2021/12/16 10:56:53;;;;;;;63.00;38.60;;;;;;;5.87;72.36;101579.19;5065195;28;20040;-69
2021/12/16 10:59:27;;;;;;;72.40;37.83;;;;;;;5.81;72.67;101578.97;5060115;28;20060;-69
2021/12/16 11:02:06;;;;;;;51.42;31.77;;;;;;;5.31;73.60;101562.25;5059809;28;20554;-69
2021/12/16 11:04:46;;;;;;;57.33;33.95;;;;;;;5.10;73.79;101561.38;5058144;28;20098;-69
2021/12/16 11:07:22;;;;;;;64.47;38.00;;;;;;;5.28;73.96;101580.34;5062287;28;20123;-70
2021/12/16 11:10:06;;;;;;;60.55;36.53;;;;;;;5.11;74.02;101544.97;5060745;28;20044;-70
2021/12/16 11:12:36;;;;;;;60.08;37.63;;;;;;;5.28;73.20;101544.78;5058757;28;20040;-72
2021/12/16 11:15:30;;;;;;;71.28;38.45;;;;;;;5.33;73.23;101544.97;5058397;28;20056;-71
2021/12/16 11:18:05;;;;;;;59.00;33.47;;;;;;;5.40;73.38;101562.59;5058368;28;20127;-71
2021/12/16 11:20:33;;;;;;;57.17;34.35;;;;;;;5.11;73.75;101539.75;5056893;28;20059;-72
2021/12/16 11:23:02;;;;;;;58.47;34.10;;;;;;;5.28;73.08;101529.19;5060732;28;20563;-71
2021/12/16 11:25:32;;;;;;;62.75;35.58;;;;;;;5.52;72.77;101556.13;5063944;28;20048;-71
2021/12/16 11:28:23;;;;;;;52.78;32.85;;;;;;;5.44;72.60;101546.28;5058201;28;20151;-71
2021/12/16 11:30:55;;;;;;;59.10;35.40;;;;;;;5.50;72.73;101538.75;5063352;28;20045;-69
2021/12/16 11:33:29;;;;;;;55.08;34.63;;;;;;;5.39;72.54;101542.63;5060496;28;20045;-71
2021/12/16 11:36:06;;;;;;;55.70;33.65;;;;;;;5.35;71.81;101529.44;5057587;28;20300;-69
2021/12/16 11:39:02;;;;;;;62.60;34.72;;;;;;;5.35;72.76;101545.94;5058973;28;20113;-69
2021/12/16 11:41:35;;;;;;;57.15;34.40;;;;;;;5.33;72.74;101537.16;5057850;28;20638;-71
2021/12/16 11:44:07;;;;;;;60.22;35.17;;;;;;;5.34;72.52;101532.84;5055286;28;20394;-71
2021/12/16 11:46:41;;;;;;;49.53;33.03;;;;;;;5.39;72.48;101531.34;5058745;28;20063;-73
2021/12/16 11:49:14;;;;;;;64.57;33.90;;;;;;;5.15;73.88;101528.63;5060429;28;20056;-71
2021/12/16 11:51:50;;;;;;;59.72;36.20;;;;;;;5.02;74.58;101533.34;5061746;28;20044;-73
2021/12/16 11:54:23;;;;;;;81.10;35.03;;;;;;;5.01;74.44;101518.59;5059662;28;20064;-73
2021/12/16 11:57:12;;;;;;;65.38;36.97;;;;;;;5.02;75.20;101520.34;5055334;28;20040;-73
2021/12/16 11:59:47;;;;;;;65.15;35.85;;;;;;;4.37;77.80;101539.28;5053579;28;20028;-72
2021/12/16 12:02:26;;;;;;;61.85;37.50;;;;;;;4.68;78.24;101563.97;5059335;28;20036;-70
2021/12/16 12:05:11;;;;;;;64.25;37.65;;;;;;;4.38;78.76;101546.25;5057993;28;20052;-72
2021/12/16 12:07:41;;;;;;;86.75;40.65;;;;;;;4.63;79.01;101564.66;5059433;28;20131;-73
2021/12/16 12:10:07;;;;;;;89.13;41.45;;;;;;;4.53;78.72;101548.63;5058354;28;20522;-71
2021/12/16 12:12:46;;;;;;;85.15;40.03;;;;;;;4.46;78.96;101542.28;5058084;28;20123;-71
2021/12/16 12:15:15;;;;;;;72.10;39.55;;;;;;;4.33;79.03;101535.66;5057618;28;20829;-72
2021/12/16 12:17:55;;;;;;;78.63;40.58;;;;;;;4.38;79.36;101531.56;5063508;28;20028;-73
2021/12/16 12:20:31;;;;;;;68.57;39.65;;;;;;;4.32;79.76;101549.47;5056231;28;20044;-73
2021/12/16 12:22:58;;;;;;;81.32;39.08;;;;;;;3.85;81.08;101543.03;5058960;28;20587;-73
2021/12/16 12:25:24;;;;;;;78.07;39.30;;;;;;;3.84;81.45;101527.38;5057283;28;20048;-72
2021/12/16 12:27:49;;;;;;;84.15;39.88;;;;;;;4.14;80.67;101533.06;5063286;28;20423;-72
2021/12/16 12:30:16;;;;;;;71.63;36.78;;;;;;;4.11;80.38;101525.16;5059311;28;20055;-70
2021/12/16 12:32:44;;;;;;;75.47;36.33;;;;;;;4.16;80.07;101547.00;5055910;28;20037;-72
2021/12/16 12:35:17;;;;;;;64.13;38.78;;;;;;;4.22;80.14;101549.88;5060692;28;20040;-72
2021/12/16 12:37:53;;;;;;;78.00;39.88;;;;;;;4.07;80.04;101520.63;5053545;28;20028;-72
2021/12/16 12:40:36;;;;;;;70.60;34.88;;;;;;;3.80;80.66;101510.81;5053573;28;20408;-71
2021/12/16 12:43:04;;;;;;;66.70;37.15;;;;;;;3.93;80.31;101544.28;5055893;28;20081;-71
2021/12/16 12:45:34;;;;;;;73.63;36.83;;;;;;;3.95;80.54;101540.03;5053166;28;20132;-71
2021/12/16 12:48:03;;;;;;;71.95;37.38;;;;;;;4.23;79.93;101541.25;5057604;28;20044;-71
2021/12/16 12:50:35;;;;;;;62.45;34.35;;;;;;;4.15;79.61;101514.09;5057644;28;20040;-71
2021/12/16 12:53:17;;;;;;;59.88;31.52;;;;;;;4.04;79.01;101513.59;5056106;28;20068;-67
2021/12/16 12:55:46;;;;;;;78.00;38.08;;;;;;;4.20;78.96;101515.16;5058541;28;20127;-70
2021/12/16 12:58:16;;;;;;;60.83;35.78;;;;;;;4.27;78.78;101509.41;5057010;28;20774;-71
2021/12/16 13:00:47;;;;;;;56.80;33.75;;;;;;;3.99;79.92;101520.31;5055687;28;20060;-70
2021/12/16 13:03:32;;;;;;;59.70;33.70;;;;;;;3.96;80.43;101544.44;5055228;28;20070;-70
2021/12/16 13:06:00;;;;;;;69.43;36.75;;;;;;;4.12;79.80;101534.69;5057151;28;20045;-69
2021/12/16 13:08:33;;;;;;;65.90;33.47;;;;;;;3.97;79.93;101512.44;5058437;28;20090;-71
2021/12/16 13:11:05;;;;;;;66.00;35.13;;;;;;;3.63;81.30;101538.59;5055963;28;20071;-71
2021/12/16 13:13:37;;;;;;;61.97;32.90;;;;;;;3.89;81.09;101552.75;5057753;28;20068;-71
2021/12/16 13:27:33;;;;;;;62.30;32.40;;;;;;;3.49;81.79;101537.94;5059949;28;20040;-70
2021/12/16 13:32:48;;;;;;;57.75;29.55;;;;;;;3.61;81.04;101524.66;5060408;28;20036;-70
2021/12/16 13:35:32;;;;;;;60.97;30.13;;;;;;;3.59;80.87;101505.53;5065492;28;20032;-70
2021/12/16 13:38:05;;;;;;;59.13;30.23;;;;;;;3.58;80.49;101508.91;5060927;28;20052;-71
2021/12/16 13:40:35;;;;;;;55.78;31.60;;;;;;;3.60;81.07;101541.03;5059226;28;20069;-70
2021/12/16 13:43:29;;;;;;;56.83;33.28;;;;;;;3.56;81.32;101532.22;5058361;28;20459;-70
2021/12/16 14:08:31;;;;;;;59.85;32.50;;;;;;;3.80;80.04;101547.16;5058108;28;20767;-70
2021/12/16 14:11:00;;;;;;;50.60;29.40;;;;;;;3.79;79.96;101555.72;5059417;28;20043;-69
2021/12/16 14:25:04;;;;;;;55.38;30.35;;;;;;;3.63;80.32;101536.00;5060635;28;20056;-70
2021/12/16 14:49:30;;;;;;;42.63;27.25;;;;;;;4.01;78.60;101563.69;5059755;28;20078;-72
2021/12/16 14:51:58;;;;;;;46.25;27.50;;;;;;;4.01;77.61;101560.22;5059983;28;20032;-71
2021/12/16 14:54:24;;;;;;;48.60;28.42;;;;;;;4.19;77.96;101583.50;5059556;28;20508;-71
2021/12/16 14:57:00;;;;;;;52.15;26.73;;;;;;;3.99;77.75;101541.06;5062531;28;20515;-70
2021/12/16 14:59:27;;;;;;;50.13;26.58;;;;;;;3.90;77.63;101562.31;5059014;28;20028;-70
2021/12/16 15:01:59;;;;;;;46.92;23.85;;;;;;;3.40;79.09;101555.66;5059197;28;20036;-70
2021/12/16 15:04:26;;;;;;;44.85;25.90;;;;;;;3.64;78.05;101545.53;5058597;28;20047;-70
2021/12/16 15:07:01;;;;;;;47.47;24.05;;;;;;;3.64;78.06;101558.53;5063329;28;20037;-70
2021/12/16 15:09:34;;;;;;;37.70;23.80;;;;;;;3.80;78.04;101576.59;5058282;28;20266;-70
2021/12/16 15:12:08;;;;;;;42.13;22.30;;;;;;;3.87;77.23;101564.78;5058550;28;20048;-70
2021/12/16 15:14:58;;;;;;;41.88;23.40;;;;;;;3.90;77.64;101559.72;5062534;28;20062;-71
2021/12/16 15:42:55;;;;;;;40.00;25.27;;;;;;;3.78;78.72;101575.63;5060709;28;20440;-73
2021/12/16 15:45:41;;;;;;;53.58;26.65;;;;;;;4.14;77.72;101582.41;5057622;28;20437;-73